createdAt,value
2018-09-03T00:00:15.665Z,15.60
2018-09-03T00:02:44.476Z,15.60
2018-09-03T00:05:13.206Z,15.60
2018-09-03T00:07:41.926Z,15.70
2018-09-03T00:10:10.668Z,15.70
2018-09-03T00:12:39.443Z,15.70
2018-09-03T00:15:08.215Z,15.70
2018-09-03T00:17:39.066Z,15.70
2018-09-03T00:20:07.880Z,15.70
2018-09-03T00:22:36.640Z,15.70
2018-09-03T00:25:05.907Z,15.70
2018-09-03T00:27:34.624Z,15.70
2018-09-03T00:30:03.466Z,15.70
2018-09-03T00:32:37.365Z,15.70
2018-09-03T00:37:15.490Z,15.80
2018-09-03T00:39:49.325Z,15.80
2018-09-03T00:42:23.403Z,15.70
2018-09-03T00:44:57.326Z,15.60
2018-09-03T00:47:26.014Z,15.60
2018-09-03T00:49:54.728Z,15.60
2018-09-03T00:52:23.594Z,15.60
2018-09-03T00:54:52.315Z,15.60
2018-09-03T00:57:20.984Z,15.60
2018-09-03T00:59:49.664Z,15.60
2018-09-03T01:02:18.390Z,15.70
2018-09-03T01:04:47.131Z,15.70
2018-09-03T01:07:15.807Z,15.70
2018-09-03T01:09:44.566Z,15.70
2018-09-03T01:12:13.396Z,15.80
2018-09-03T01:14:42.084Z,15.80
2018-09-03T01:17:10.860Z,15.80
2018-09-03T01:19:39.545Z,15.80
2018-09-03T01:22:08.266Z,15.80
2018-09-03T01:24:37.144Z,15.80
2018-09-03T01:27:06.172Z,15.80
2018-09-03T01:29:34.921Z,15.80
2018-09-03T01:32:03.643Z,15.80
2018-09-03T01:34:32.327Z,15.80
2018-09-03T01:37:01.032Z,15.80
2018-09-03T01:39:29.712Z,15.80
2018-09-03T01:41:58.416Z,15.80
2018-09-03T01:44:27.133Z,15.80
2018-09-03T01:46:55.756Z,15.70
2018-09-03T01:49:24.472Z,15.70
2018-09-03T01:51:53.155Z,15.60
2018-09-03T01:54:21.797Z,15.60
2018-09-03T01:56:50.435Z,15.60
2018-09-03T01:59:19.057Z,15.60
2018-09-03T02:01:47.864Z,15.60
2018-09-03T02:04:16.547Z,15.70
2018-09-03T02:06:45.340Z,15.70
2018-09-03T02:09:14.012Z,15.70
2018-09-03T02:11:42.770Z,15.70
2018-09-03T02:14:11.412Z,15.70
2018-09-03T02:16:40.300Z,15.70
2018-09-03T02:19:09.472Z,15.70
2018-09-03T02:21:38.124Z,15.60
2018-09-03T02:24:06.816Z,15.60
2018-09-03T02:26:35.522Z,15.60
2018-09-03T02:29:04.315Z,15.60
2018-09-03T02:31:33.035Z,15.50
2018-09-03T02:34:01.748Z,15.50
2018-09-03T02:36:30.353Z,15.50
2018-09-03T02:38:59.201Z,15.50
2018-09-03T02:41:28.236Z,15.60
2018-09-03T02:43:57.764Z,15.60
2018-09-03T02:46:26.641Z,15.60
2018-09-03T02:48:55.680Z,15.60
2018-09-03T02:51:24.373Z,15.60
2018-09-03T02:53:53.393Z,15.60
2018-09-03T02:56:22.194Z,15.60
2018-09-03T02:58:50.809Z,15.60
2018-09-03T03:01:19.876Z,15.50
2018-09-03T03:03:48.769Z,15.50
2018-09-03T03:06:17.533Z,15.40
2018-09-03T03:08:46.467Z,15.40
2018-09-03T03:11:15.352Z,15.40
2018-09-03T03:13:44.321Z,15.40
2018-09-03T03:16:13.049Z,15.40
2018-09-03T03:18:41.776Z,15.40
2018-09-03T03:21:10.420Z,15.40
2018-09-03T03:23:39.053Z,15.40
2018-09-03T03:26:07.744Z,15.50
2018-09-03T03:28:36.500Z,15.40
2018-09-03T03:31:05.490Z,15.40
2018-09-03T03:33:34.127Z,15.40
2018-09-03T03:36:02.900Z,15.40
2018-09-03T03:38:31.782Z,15.50
2018-09-03T03:41:00.435Z,15.50
2018-09-03T03:43:29.085Z,15.40
2018-09-03T03:45:57.807Z,15.40
2018-09-03T03:48:26.521Z,15.40
2018-09-03T03:50:55.189Z,15.40
2018-09-03T03:53:23.868Z,15.40
2018-09-03T03:55:53.597Z,15.40
2018-09-03T03:58:22.234Z,15.40
2018-09-03T04:00:51.174Z,15.40
2018-09-03T04:03:19.857Z,15.40
2018-09-03T04:05:48.643Z,15.40
2018-09-03T04:08:17.296Z,15.50
2018-09-03T04:10:45.925Z,15.50
2018-09-03T04:13:14.546Z,15.50
2018-09-03T04:15:43.216Z,15.60
2018-09-03T04:18:11.860Z,15.60
2018-09-03T04:20:40.521Z,15.60
2018-09-03T04:23:09.421Z,15.60
2018-09-03T04:25:38.042Z,15.60
2018-09-03T04:28:07.049Z,15.60
2018-09-03T04:30:35.791Z,15.70
2018-09-03T04:33:04.427Z,15.70
2018-09-03T04:35:33.077Z,15.60
2018-09-03T04:38:02.008Z,15.70
2018-09-03T04:40:30.665Z,15.60
2018-09-03T04:42:59.525Z,15.60
2018-09-03T04:45:28.219Z,15.60
2018-09-03T04:47:57.369Z,15.50
2018-09-03T04:50:26.186Z,15.40
2018-09-03T04:52:54.900Z,15.40
2018-09-03T04:55:24.147Z,15.40
2018-09-03T04:57:52.711Z,15.40
2018-09-03T05:00:21.693Z,15.40
2018-09-03T05:02:50.528Z,15.40
2018-09-03T05:05:19.299Z,15.40
2018-09-03T05:07:48.235Z,15.40
2018-09-03T05:10:16.993Z,15.40
2018-09-03T05:12:46.383Z,15.50
2018-09-03T05:15:15.460Z,15.50
2018-09-03T05:17:44.496Z,15.50
2018-09-03T05:20:13.053Z,15.60
2018-09-03T05:22:41.865Z,15.60
2018-09-03T05:25:10.532Z,15.60
2018-09-03T05:27:39.500Z,15.60
2018-09-03T05:30:08.930Z,15.70
2018-09-03T05:32:38.370Z,15.70
2018-09-03T05:35:07.340Z,15.70
2018-09-03T05:37:36.680Z,15.80
2018-09-03T05:40:05.529Z,15.70
2018-09-03T05:42:34.368Z,15.70
2018-09-03T05:45:03.197Z,15.70
2018-09-03T05:47:32.128Z,15.70
2018-09-03T05:50:00.775Z,15.80
2018-09-03T05:52:29.433Z,15.80
2018-09-03T05:54:58.343Z,15.80
2018-09-03T05:57:27.724Z,15.80
2018-09-03T05:59:56.424Z,15.90
2018-09-03T06:02:25.461Z,15.90
2018-09-03T06:04:54.142Z,16.00
2018-09-03T06:07:22.903Z,16.00
2018-09-03T06:09:51.933Z,16.10
2018-09-03T06:12:20.557Z,16.10
2018-09-03T06:14:49.782Z,16.10
2018-09-03T06:17:18.797Z,16.20
2018-09-03T06:19:47.573Z,16.30
2018-09-03T06:22:16.258Z,16.30
2018-09-03T06:24:44.956Z,16.30
2018-09-03T06:27:13.611Z,16.30
2018-09-03T06:29:42.839Z,16.20
2018-09-03T06:32:11.866Z,16.20
2018-09-03T06:34:41.006Z,16.20
2018-09-03T06:37:09.797Z,16.20
2018-09-03T06:39:38.569Z,16.20
2018-09-03T06:42:07.829Z,16.20
2018-09-03T06:44:36.468Z,16.30
2018-09-03T06:47:05.430Z,16.20
2018-09-03T06:49:34.217Z,16.20
2018-09-03T06:52:03.101Z,16.20
2018-09-03T06:54:32.364Z,16.20
2018-09-03T06:57:01.356Z,16.20
2018-09-03T06:59:30.374Z,16.10
2018-09-03T07:01:58.973Z,16.10
2018-09-03T07:04:27.705Z,16.20
2018-09-03T07:06:56.362Z,16.20
2018-09-03T07:09:25.036Z,16.30
2018-09-03T07:11:53.784Z,16.20
2018-09-03T07:14:22.504Z,16.20
2018-09-03T07:16:51.150Z,16.20
2018-09-03T07:19:19.877Z,16.20
2018-09-03T07:21:49.045Z,16.20
2018-09-03T07:24:17.809Z,16.20
2018-09-03T07:26:46.455Z,16.30
2018-09-03T07:29:15.340Z,16.30
2018-09-03T07:31:44.261Z,16.40
2018-09-03T07:34:13.417Z,16.30
2018-09-03T07:36:42.390Z,16.40
2018-09-03T07:39:11.111Z,16.40
2018-09-03T07:41:40.874Z,16.40
2018-09-03T07:44:09.622Z,16.40
2018-09-03T07:46:38.437Z,16.40
2018-09-03T07:49:08.312Z,16.40
2018-09-03T07:51:37.088Z,16.50
2018-09-03T07:54:05.704Z,16.50
2018-09-03T07:56:34.528Z,16.60
2018-09-03T07:59:03.384Z,16.60
2018-09-03T08:01:32.151Z,16.70
2018-09-03T08:04:01.165Z,16.80
2018-09-03T08:06:29.921Z,16.90
2018-09-03T08:08:58.753Z,17.00
2018-09-03T08:11:27.369Z,17.30
2018-09-03T08:13:56.245Z,17.50
2018-09-03T08:16:24.931Z,17.70
2018-09-03T08:18:53.681Z,17.80
2018-09-03T08:21:22.476Z,17.80
2018-09-03T08:23:51.104Z,17.80
2018-09-03T08:26:20.179Z,18.10
2018-09-03T08:28:49.817Z,18.20
2018-09-03T08:31:19.006Z,18.40
2018-09-03T08:33:47.569Z,18.60
2018-09-03T08:36:16.506Z,18.90
2018-09-03T08:38:45.144Z,19.40
2018-09-03T08:41:13.841Z,19.70
2018-09-03T08:43:42.505Z,19.80
2018-09-03T08:46:11.651Z,19.90
2018-09-03T08:48:45.265Z,19.90
2018-09-03T08:51:14.436Z,19.80
2018-09-03T08:53:43.177Z,19.80
2018-09-03T08:56:11.921Z,19.80
2018-09-03T08:58:40.875Z,19.90
2018-09-03T09:01:09.663Z,20.00
2018-09-03T09:03:43.090Z,20.10
2018-09-03T09:06:12.000Z,20.20
2018-09-03T09:08:40.877Z,20.30
2018-09-03T09:11:10.400Z,20.40
2018-09-03T09:13:39.665Z,20.30
2018-09-03T09:16:08.441Z,20.30
2018-09-03T09:18:37.497Z,20.50
2018-09-03T09:21:06.146Z,20.70
2018-09-03T09:23:34.796Z,21.00
2018-09-03T09:26:03.368Z,21.40
2018-09-03T09:28:32.651Z,21.70
2018-09-03T09:31:01.700Z,21.70
2018-09-03T09:33:30.334Z,21.90
2018-09-03T09:35:58.925Z,22.10
2018-09-03T09:38:27.730Z,21.80
2018-09-03T09:40:56.461Z,21.80
2018-09-03T09:43:25.167Z,22.00
2018-09-03T09:45:53.835Z,22.10
2018-09-03T09:48:22.549Z,22.10
2018-09-03T09:50:51.469Z,22.40
2018-09-03T09:53:20.095Z,22.20
2018-09-03T09:55:48.680Z,22.10
2018-09-03T09:58:17.566Z,22.10
2018-09-03T10:00:51.508Z,22.10
2018-09-03T10:03:20.193Z,22.10
2018-09-03T10:05:48.873Z,21.70
2018-09-03T10:08:17.536Z,21.40
2018-09-03T10:10:46.260Z,21.20
2018-09-03T10:13:14.951Z,21.30
2018-09-03T10:15:43.570Z,21.60
2018-09-03T10:18:12.217Z,22.00
2018-09-03T10:20:40.860Z,22.30
2018-09-03T10:23:09.494Z,22.10
2018-09-03T10:25:38.160Z,21.60
2018-09-03T10:28:06.753Z,21.40
2018-09-03T10:30:35.383Z,21.50
2018-09-03T10:33:03.984Z,21.70
2018-09-03T10:35:32.635Z,21.60
2018-09-03T10:38:01.292Z,21.50
2018-09-03T10:40:29.953Z,21.50
2018-09-03T10:42:58.725Z,21.70
2018-09-03T10:45:27.417Z,22.20
2018-09-03T10:47:56.173Z,22.80
2018-09-03T10:50:24.865Z,23.50
2018-09-03T10:52:53.484Z,24.10
2018-09-03T10:55:22.111Z,24.50
2018-09-03T10:57:50.785Z,24.70
2018-09-03T11:00:19.496Z,24.90
2018-09-03T11:02:48.133Z,24.80
2018-09-03T11:05:16.833Z,24.90
2018-09-03T11:07:45.452Z,24.90
2018-09-03T11:10:14.132Z,24.90
2018-09-03T11:12:42.760Z,24.90
2018-09-03T11:15:11.424Z,24.90
2018-09-03T11:17:40.124Z,25.20
2018-09-03T11:20:11.851Z,25.50
2018-09-03T11:22:40.452Z,25.80
2018-09-03T11:25:09.171Z,26.20
2018-09-03T11:27:37.916Z,26.50
2018-09-03T11:30:07.520Z,26.60
2018-09-03T11:32:36.136Z,26.10
2018-09-03T11:35:04.902Z,25.20
2018-09-03T11:37:33.549Z,24.80
2018-09-03T11:40:02.191Z,24.40
2018-09-03T11:42:30.878Z,23.90
2018-09-03T11:44:59.519Z,23.40
2018-09-03T11:47:28.156Z,23.30
2018-09-03T11:49:56.893Z,23.70
2018-09-03T11:52:25.602Z,23.90
2018-09-03T11:54:54.320Z,23.90
2018-09-03T11:57:23.022Z,24.20
2018-09-03T11:59:51.710Z,24.70
2018-09-03T12:02:20.364Z,25.00
2018-09-03T12:04:49.080Z,25.20
2018-09-03T12:07:17.717Z,24.90
2018-09-03T12:09:46.401Z,24.30
2018-09-03T12:12:15.079Z,24.40
2018-09-03T12:14:45.989Z,24.90
2018-09-03T12:17:14.661Z,25.40
2018-09-03T12:19:43.273Z,26.00
2018-09-03T12:22:11.953Z,26.20
2018-09-03T12:24:40.634Z,26.60
2018-09-03T12:27:09.277Z,26.80
2018-09-03T12:29:37.944Z,27.10
2018-09-03T12:32:06.682Z,27.30
2018-09-03T12:34:35.365Z,27.40
2018-09-03T12:37:04.088Z,27.70
2018-09-03T12:39:32.761Z,28.00
2018-09-03T12:42:01.361Z,28.00
2018-09-03T12:44:29.967Z,28.00
2018-09-03T12:46:58.561Z,28.00
2018-09-03T12:49:27.215Z,27.80
2018-09-03T12:51:55.897Z,27.70
2018-09-03T12:54:24.468Z,27.40
2018-09-03T12:56:53.017Z,27.20
2018-09-03T12:59:22.860Z,27.00
2018-09-03T13:01:51.558Z,27.10
2018-09-03T13:04:20.314Z,27.10
2018-09-03T13:06:48.879Z,27.10
2018-09-03T13:09:17.532Z,26.70
2018-09-03T13:11:46.180Z,26.70
2018-09-03T13:14:14.855Z,26.80
2018-09-03T13:16:43.539Z,26.60
2018-09-03T13:19:12.233Z,26.50
2018-09-03T13:21:40.852Z,26.30
2018-09-03T13:24:09.457Z,26.20
2018-09-03T13:26:38.096Z,26.20
2018-09-03T13:29:06.757Z,26.30
2018-09-03T13:31:35.441Z,26.40
2018-09-03T13:34:04.065Z,26.40
2018-09-03T13:36:32.784Z,26.40
2018-09-03T13:39:01.403Z,26.40
2018-09-03T13:41:30.121Z,26.60
2018-09-03T13:43:58.838Z,27.10
2018-09-03T13:46:27.553Z,27.60
2018-09-03T13:48:56.209Z,28.00
2018-09-03T13:51:24.801Z,28.20
2018-09-03T13:53:53.469Z,28.40
2018-09-03T13:56:22.116Z,28.70
2018-09-03T13:58:50.810Z,28.90
2018-09-03T14:01:19.501Z,29.00
2018-09-03T14:03:48.150Z,29.10
2018-09-03T14:06:16.902Z,29.10
2018-09-03T14:08:45.589Z,29.00
2018-09-03T14:11:14.268Z,29.00
2018-09-03T14:13:44.101Z,29.00
2018-09-03T14:16:12.813Z,29.10
2018-09-03T14:18:41.478Z,29.20
2018-09-03T14:21:10.205Z,29.30
2018-09-03T14:23:38.864Z,29.30
2018-09-03T14:26:07.558Z,29.40
2018-09-03T14:28:36.320Z,29.20
2018-09-03T14:31:05.081Z,28.80
2018-09-03T14:33:33.751Z,27.70
2018-09-03T14:36:02.431Z,27.00
2018-09-03T14:38:31.125Z,27.40
2018-09-03T14:40:59.796Z,28.80
2018-09-03T14:43:28.488Z,31.00
2018-09-03T14:45:57.132Z,33.10
2018-09-03T14:48:26.819Z,34.70
2018-09-03T14:50:55.501Z,36.00
2018-09-03T14:53:24.157Z,37.10
2018-09-03T14:55:52.760Z,37.70
2018-09-03T14:58:21.308Z,38.00
2018-09-03T15:00:49.909Z,37.50
2018-09-03T15:03:18.557Z,37.00
2018-09-03T15:05:47.184Z,36.60
2018-09-03T15:08:15.969Z,36.90
2018-09-03T15:10:44.592Z,37.50
2018-09-03T15:13:13.314Z,38.20
2018-09-03T15:15:41.908Z,38.40
2018-09-03T15:18:10.524Z,38.80
2018-09-03T15:20:39.196Z,38.80
2018-09-03T15:23:07.787Z,37.40
2018-09-03T15:25:36.368Z,36.00
2018-09-03T15:28:05.297Z,35.10
2018-09-03T15:30:33.936Z,34.90
2018-09-03T15:33:02.614Z,34.90
2018-09-03T15:35:45.889Z,34.50
2018-09-03T15:38:14.564Z,33.50
2018-09-03T15:40:43.184Z,32.70
2018-09-03T15:43:11.894Z,32.00
2018-09-03T15:45:40.652Z,31.50
2018-09-03T15:48:09.343Z,31.20
2018-09-03T15:50:38.027Z,31.60
2018-09-03T15:53:06.689Z,33.20
2018-09-03T15:55:35.276Z,34.50
2018-09-03T15:58:03.953Z,34.70
2018-09-03T16:00:32.625Z,34.70
2018-09-03T16:03:01.292Z,34.30
2018-09-03T16:05:30.231Z,34.60
2018-09-03T16:07:58.930Z,34.20
2018-09-03T16:10:27.601Z,33.80
2018-09-03T16:12:56.224Z,34.50
2018-09-03T16:15:25.162Z,35.60
2018-09-03T16:17:54.269Z,35.90
2018-09-03T16:20:22.932Z,36.00
2018-09-03T16:22:51.577Z,35.50
2018-09-03T16:25:20.224Z,35.10
2018-09-03T16:27:48.969Z,34.90
2018-09-03T16:30:17.588Z,34.50
2018-09-03T16:32:46.217Z,33.90
2018-09-03T16:35:15.389Z,33.80
2018-09-03T16:37:58.880Z,34.30
2018-09-03T16:40:28.057Z,35.10
2018-09-03T16:42:56.833Z,35.60
2018-09-03T16:45:26.084Z,34.70
2018-09-03T16:47:55.545Z,34.10
2018-09-03T16:50:24.169Z,33.80
2018-09-03T16:52:52.905Z,33.20
2018-09-03T16:55:22.236Z,31.70
2018-09-03T16:57:50.821Z,30.20
2018-09-03T17:00:19.505Z,29.10
2018-09-03T17:02:48.141Z,28.40
2018-09-03T17:05:16.785Z,28.10
2018-09-03T17:07:45.524Z,28.10
2018-09-03T17:10:14.188Z,28.00
2018-09-03T17:12:43.357Z,27.60
2018-09-03T17:15:12.138Z,27.20
2018-09-03T17:17:41.149Z,27.00
2018-09-03T17:20:10.009Z,26.70
2018-09-03T17:22:38.860Z,26.70
2018-09-03T17:25:08.054Z,26.50
2018-09-03T17:27:36.831Z,26.30
2018-09-03T17:30:06.002Z,26.30
2018-09-03T17:32:34.641Z,26.10
2018-09-03T17:35:03.401Z,25.70
2018-09-03T17:37:32.084Z,25.00
2018-09-03T17:40:00.737Z,24.30
2018-09-03T17:42:29.739Z,23.40
2018-09-03T17:44:58.534Z,22.60
2018-09-03T17:47:27.310Z,22.20
2018-09-03T17:50:02.685Z,22.00
2018-09-03T17:52:31.333Z,21.70
2018-09-03T17:55:00.054Z,21.50
2018-09-03T17:57:28.956Z,21.30
2018-09-03T17:59:57.696Z,21.10
2018-09-03T18:02:26.591Z,21.10
2018-09-03T18:04:55.266Z,21.00
2018-09-03T18:07:24.549Z,21.00
2018-09-03T18:09:53.708Z,21.00
2018-09-03T18:12:22.349Z,20.90
2018-09-03T18:14:51.034Z,20.80
2018-09-03T18:17:19.708Z,20.80
2018-09-03T18:19:48.378Z,20.60
2018-09-03T18:22:17.064Z,20.40
2018-09-03T18:24:45.704Z,20.30
2018-09-03T18:27:14.370Z,20.20
2018-09-03T18:29:43.146Z,20.10
2018-09-03T18:32:11.875Z,19.90
2018-09-03T18:34:40.564Z,19.80
2018-09-03T18:37:09.483Z,19.70
2018-09-03T18:39:38.473Z,19.60
2018-09-03T18:42:07.173Z,19.50
2018-09-03T18:44:37.045Z,19.50
2018-09-03T18:47:05.785Z,19.40
2018-09-03T18:49:34.507Z,19.40
2018-09-03T18:52:03.926Z,19.30
2018-09-03T18:54:32.561Z,19.30
2018-09-03T18:57:01.220Z,19.20
2018-09-03T18:59:29.857Z,19.10
2018-09-03T19:01:58.688Z,18.90
2018-09-03T19:04:27.353Z,18.80
2018-09-03T19:06:56.050Z,18.60
2018-09-03T19:09:24.764Z,18.50
2018-09-03T19:11:53.410Z,18.40
2018-09-03T19:14:22.081Z,18.30
2018-09-03T19:16:50.805Z,18.20
2018-09-03T19:19:19.497Z,18.00
2018-09-03T19:21:51.568Z,17.90
2018-09-03T19:24:20.526Z,17.80
2018-09-03T19:26:49.565Z,17.80
2018-09-03T19:29:18.392Z,17.80
2018-09-03T19:31:47.308Z,17.70
2018-09-03T19:34:15.983Z,17.70
2018-09-03T19:36:44.803Z,17.70
2018-09-03T19:39:13.618Z,17.70
2018-09-03T19:41:42.641Z,17.60
2018-09-03T19:44:11.280Z,17.60
2018-09-03T19:46:39.915Z,17.50
2018-09-03T19:49:09.052Z,17.50
2018-09-03T19:51:38.265Z,17.50
2018-09-03T19:54:06.889Z,17.40
2018-09-03T19:56:35.709Z,17.40
2018-09-03T19:59:04.801Z,17.30
2018-09-03T20:01:33.613Z,17.30
2018-09-03T20:04:02.272Z,17.20
2018-09-03T20:06:30.926Z,17.10
2018-09-03T20:08:59.671Z,17.00
2018-09-03T20:11:29.604Z,17.00
2018-09-03T20:13:58.234Z,17.00
2018-09-03T20:16:26.869Z,17.00
2018-09-03T20:18:55.516Z,16.90
2018-09-03T20:21:24.292Z,16.90
2018-09-03T20:23:53.299Z,16.90
2018-09-03T20:26:22.288Z,16.80
2018-09-03T20:28:52.231Z,16.70
2018-09-03T20:31:20.880Z,16.70
2018-09-03T20:33:49.765Z,16.70
2018-09-03T20:36:18.447Z,16.60
2018-09-03T20:38:47.133Z,16.60
2018-09-03T20:41:15.769Z,16.50
2018-09-03T20:43:44.401Z,16.40
2018-09-03T20:46:13.041Z,16.30
2018-09-03T20:48:42.077Z,16.30
2018-09-03T20:51:10.745Z,16.30
2018-09-03T20:53:39.440Z,16.30
2018-09-03T20:56:08.128Z,16.30
2018-09-03T20:58:36.840Z,16.20
2018-09-03T21:01:05.704Z,16.20
2018-09-03T21:03:34.338Z,16.20
2018-09-03T21:06:03.073Z,16.20
2018-09-03T21:08:31.738Z,16.10
2018-09-03T21:11:00.375Z,16.00
2018-09-03T21:13:29.130Z,16.00
2018-09-03T21:15:57.833Z,16.00
2018-09-03T21:18:26.504Z,16.00
2018-09-03T21:20:55.229Z,16.00
2018-09-03T21:23:24.176Z,16.00
2018-09-03T21:25:53.144Z,16.00
2018-09-03T21:28:21.817Z,16.00
2018-09-03T21:30:50.484Z,16.00
2018-09-03T21:33:19.203Z,16.00
2018-09-03T21:35:47.872Z,15.90
2018-09-03T21:38:16.750Z,16.00
2018-09-03T21:40:45.457Z,15.90
2018-09-03T21:43:14.232Z,15.90
2018-09-03T21:45:42.904Z,15.90
2018-09-03T21:48:11.501Z,15.90
2018-09-03T21:50:40.157Z,15.90
2018-09-03T21:53:09.009Z,15.90
2018-09-03T21:55:37.672Z,15.90
2018-09-03T21:58:06.357Z,15.90
2018-09-03T22:00:35.064Z,15.90
2018-09-03T22:03:03.937Z,15.80
2018-09-03T22:05:32.505Z,15.80
2018-09-03T22:08:01.108Z,15.80
2018-09-03T22:10:29.966Z,15.70
2018-09-03T22:12:58.580Z,15.70
2018-09-03T22:15:27.253Z,15.60
2018-09-03T22:17:55.932Z,15.60
2018-09-03T22:20:24.862Z,15.60
2018-09-03T22:22:53.534Z,15.60
2018-09-03T22:25:22.284Z,15.60
2018-09-03T22:27:50.956Z,15.60
2018-09-03T22:30:19.815Z,15.60
2018-09-03T22:32:48.539Z,15.50
2018-09-03T22:35:17.220Z,15.50
2018-09-03T22:37:45.914Z,15.50
2018-09-03T22:40:14.692Z,15.50
2018-09-03T22:42:43.316Z,15.50
2018-09-03T22:45:12.040Z,15.50
2018-09-03T22:47:40.649Z,15.40
2018-09-03T22:50:09.376Z,15.30
2018-09-03T22:52:38.251Z,15.20
2018-09-03T22:55:07.130Z,15.20
2018-09-03T22:57:35.793Z,15.20
2018-09-03T23:00:04.710Z,15.20
2018-09-03T23:02:37.584Z,15.20
2018-09-03T23:05:06.383Z,15.10
2018-09-03T23:07:35.021Z,15.10
2018-09-03T23:10:03.765Z,15.10
2018-09-03T23:12:32.849Z,15.10
2018-09-03T23:15:01.520Z,15.00
2018-09-03T23:17:30.222Z,14.90
2018-09-03T23:19:58.853Z,14.90
2018-09-03T23:22:27.549Z,14.90
2018-09-03T23:24:56.729Z,14.90
2018-09-03T23:27:25.414Z,14.90
2018-09-03T23:29:54.096Z,14.90
2018-09-03T23:32:22.960Z,14.80
2018-09-03T23:34:51.661Z,14.80
2018-09-03T23:37:20.385Z,14.80
2018-09-03T23:39:49.245Z,14.70
2018-09-03T23:42:17.864Z,14.70
2018-09-03T23:44:46.574Z,14.70
2018-09-03T23:47:15.233Z,14.70
2018-09-03T23:49:43.880Z,14.70
2018-09-03T23:52:12.790Z,14.70
2018-09-03T23:54:41.792Z,14.70
2018-09-03T23:57:10.432Z,14.70
2018-09-03T23:59:39.386Z,14.70
